sensor_id;sensor_type;location;lat;lon;timestamp;pressure;altitude;pressure_sealevel;temperature;humidity
11345;BME280;5727;42.600;23.028;2023-09-18T00:01:12;94160.75;;;16.47;100.00
11345;BME280;5727;42.600;23.028;2023-09-18T00:03:39;94160.69;;;16.44;100.00
11345;BME280;5727;42.600;23.028;2023-09-18T00:06:06;94153.81;;;16.39;100.00
11345;BME280;5727;42.600;23.028;2023-09-18T00:08:35;94140.22;;;16.41;100.00
11345;BME280;5727;42.600;23.028;2023-09-18T00:11:02;94145.53;;;16.41;100.00
11345;BME280;5727;42.600;23.028;2023-09-18T00:13:28;94150.75;;;16.37;100.00
11345;BME280;5727;42.600;23.028;2023-09-18T00:15:55;94146.19;;;16.34;100.00
11345;BME280;5727;42.600;23.028;2023-09-18T00:18:25;94146.09;;;16.31;100.00
11345;BME280;5727;42.600;23.028;2023-09-18T00:20:51;94155.91;;;16.30;100.00
11345;BME280;5727;42.600;23.028;2023-09-18T00:23:19;94146.44;;;16.29;100.00
11345;BME280;5727;42.600;23.028;2023-09-18T00:25:47;94159.66;;;16.29;100.00
11345;BME280;5727;42.600;23.028;2023-09-18T00:28:14;94156.59;;;16.27;100.00
11345;BME280;5727;42.600;23.028;2023-09-18T00:30:46;94171.63;;;16.23;100.00
11345;BME280;5727;42.600;23.028;2023-09-18T00:33:13;94167.75;;;16.17;100.00
11345;BME280;5727;42.600;23.028;2023-09-18T00:35:39;94163.16;;;16.14;100.00
11345;BME280;5727;42.600;23.028;2023-09-18T00:38:06;94164.69;;;16.15;100.00
11345;BME280;5727;42.600;23.028;2023-09-18T00:40:33;94167.41;;;16.19;100.00
11345;BME280;5727;42.600;23.028;2023-09-18T00:43:01;94165.53;;;16.19;100.00
11345;BME280;5727;42.600;23.028;2023-09-18T00:45:28;94170.53;;;16.24;100.00
11345;BME280;5727;42.600;23.028;2023-09-18T00:47:55;94168.66;;;16.25;100.00
11345;BME280;5727;42.600;23.028;2023-09-18T00:50:22;94169.06;;;16.27;100.00
11345;BME280;5727;42.600;23.028;2023-09-18T00:52:50;94172.47;;;16.27;100.00
11345;BME280;5727;42.600;23.028;2023-09-18T00:55:17;94172.88;;;16.29;100.00
11345;BME280;5727;42.600;23.028;2023-09-18T00:57:44;94183.47;;;16.29;100.00
11345;BME280;5727;42.600;23.028;2023-09-18T01:00:13;94180.41;;;16.27;100.00
11345;BME280;5727;42.600;23.028;2023-09-18T01:02:43;94180.81;;;16.29;100.00
11345;BME280;5727;42.600;23.028;2023-09-18T01:05:11;94184.59;;;16.28;100.00
11345;BME280;5727;42.600;23.028;2023-09-18T01:07:38;94178.47;;;16.24;100.00
11345;BME280;5727;42.600;23.028;2023-09-18T01:10:05;94174.69;;;16.25;100.00
11345;BME280;5727;42.600;23.028;2023-09-18T01:12:40;94181.47;;;16.23;100.00
11345;BME280;5727;42.600;23.028;2023-09-18T01:15:15;94170.13;;;16.22;100.00
11345;BME280;5727;42.600;23.028;2023-09-18T01:17:43;94175.28;;;16.15;100.00
11345;BME280;5727;42.600;23.028;2023-09-18T01:20:12;94175.59;;;16.14;100.00
11345;BME280;5727;42.600;23.028;2023-09-18T01:22:40;94178.53;;;16.09;100.00
11345;BME280;5727;42.600;23.028;2023-09-18T01:25:07;94172.75;;;16.03;100.00
11345;BME280;5727;42.600;23.028;2023-09-18T01:27:34;94180.28;;;16.01;100.00
11345;BME280;5727;42.600;23.028;2023-09-18T01:30:01;94170.38;;;15.98;100.00
11345;BME280;5727;42.600;23.028;2023-09-18T01:32:30;94170.59;;;15.90;100.00
11345;BME280;5727;42.600;23.028;2023-09-18T01:35:00;94167.59;;;15.91;100.00
11345;BME280;5727;42.600;23.028;2023-09-18T01:37:29;94170.38;;;15.79;100.00
11345;BME280;5727;42.600;23.028;2023-09-18T01:39:58;94175.09;;;15.70;100.00
11345;BME280;5727;42.600;23.028;2023-09-18T01:42:25;94169.44;;;15.72;100.00
11345;BME280;5727;42.600;23.028;2023-09-18T01:44:53;94177.31;;;15.68;100.00
11345;BME280;5727;42.600;23.028;2023-09-18T01:47:21;94182.75;;;15.75;100.00
11345;BME280;5727;42.600;23.028;2023-09-18T01:49:49;94180.94;;;15.79;100.00
11345;BME280;5727;42.600;23.028;2023-09-18T01:52:16;94181.34;;;15.81;100.00
11345;BME280;5727;42.600;23.028;2023-09-18T01:54:43;94188.19;;;15.82;100.00
11345;BME280;5727;42.600;23.028;2023-09-18T01:57:11;94182.91;;;15.82;100.00
11345;BME280;5727;42.600;23.028;2023-09-18T01:59:38;94187.06;;;15.83;100.00
11345;BME280;5727;42.600;23.028;2023-09-18T02:02:07;94187.47;;;15.85;100.00
11345;BME280;5727;42.600;23.028;2023-09-18T02:04:35;94186.38;;;15.86;100.00
11345;BME280;5727;42.600;23.028;2023-09-18T02:07:02;94183.75;;;15.86;100.00
11345;BME280;5727;42.600;23.028;2023-09-18T02:09:29;94181.88;;;15.87;100.00
11345;BME280;5727;42.600;23.028;2023-09-18T02:11:56;94183.03;;;15.89;100.00
11345;BME280;5727;42.600;23.028;2023-09-18T02:14:24;94189.09;;;15.90;100.00
11345;BME280;5727;42.600;23.028;2023-09-18T02:16:51;94190.75;;;15.79;100.00
11345;BME280;5727;42.600;23.028;2023-09-18T02:19:19;94184.41;;;15.83;100.00
11345;BME280;5727;42.600;23.028;2023-09-18T02:21:46;94189.88;;;15.90;100.00
11345;BME280;5727;42.600;23.028;2023-09-18T02:24:12;94198.63;;;15.94;100.00
11345;BME280;5727;42.600;23.028;2023-09-18T02:26:39;94190.84;;;16.01;100.00
11345;BME280;5727;42.600;23.028;2023-09-18T02:29:08;94191.25;;;16.03;100.00
11345;BME280;5727;42.600;23.028;2023-09-18T02:31:38;94195.28;;;15.97;100.00
11345;BME280;5727;42.600;23.028;2023-09-18T02:34:05;94191.13;;;15.96;100.00
11345;BME280;5727;42.600;23.028;2023-09-18T02:36:32;94193.34;;;15.94;100.00
11345;BME280;5727;42.600;23.028;2023-09-18T02:38:59;94187.00;;;15.99;100.00
11345;BME280;5727;42.600;23.028;2023-09-18T02:41:26;94190.41;;;15.99;100.00
11345;BME280;5727;42.600;23.028;2023-09-18T02:43:52;94186.34;;;16.02;100.00
11345;BME280;5727;42.600;23.028;2023-09-18T02:46:19;94193.06;;;15.99;100.00
11345;BME280;5727;42.600;23.028;2023-09-18T02:48:47;94192.22;;;15.95;100.00
11345;BME280;5727;42.600;23.028;2023-09-18T02:51:14;94190.78;;;15.98;100.00
11345;BME280;5727;42.600;23.028;2023-09-18T02:53:41;94190.84;;;16.01;100.00
11345;BME280;5727;42.600;23.028;2023-09-18T02:56:07;94193.56;;;16.05;100.00
11345;BME280;5727;42.600;23.028;2023-09-18T02:58:34;94192.53;;;16.09;100.00
11345;BME280;5727;42.600;23.028;2023-09-18T03:01:01;94189.53;;;16.11;100.00
11345;BME280;5727;42.600;23.028;2023-09-18T03:03:29;94195.16;;;16.09;100.00
11345;BME280;5727;42.600;23.028;2023-09-18T03:06:01;94187.91;;;16.06;100.00
11345;BME280;5727;42.600;23.028;2023-09-18T03:08:28;94188.25;;;16.05;100.00
11345;BME280;5727;42.600;23.028;2023-09-18T03:10:55;94193.56;;;16.05;100.00
11345;BME280;5727;42.600;23.028;2023-09-18T03:13:22;94190.41;;;15.99;100.00
11345;BME280;5727;42.600;23.028;2023-09-18T03:15:49;94190.13;;;16.04;100.00
11345;BME280;5727;42.600;23.028;2023-09-18T03:18:16;94188.25;;;16.05;100.00
11345;BME280;5727;42.600;23.028;2023-09-18T03:20:43;94185.28;;;16.06;100.00
11345;BME280;5727;42.600;23.028;2023-09-18T03:23:12;94191.63;;;16.02;100.00
11345;BME280;5727;42.600;23.028;2023-09-18T03:25:39;94192.22;;;15.95;100.00
11345;BME280;5727;42.600;23.028;2023-09-18T03:28:06;94190.53;;;15.87;100.00
11345;BME280;5727;42.600;23.028;2023-09-18T03:30:33;94184.16;;;15.88;100.00
11345;BME280;5727;42.600;23.028;2023-09-18T03:32:59;94193.59;;;15.89;100.00
11345;BME280;5727;42.600;23.028;2023-09-18T03:35:28;94195.28;;;15.97;100.00
11345;BME280;5727;42.600;23.028;2023-09-18T03:37:55;94198.34;;;15.99;100.00
11345;BME280;5727;42.600;23.028;2023-09-18T03:40:23;94192.34;;;16.02;100.00
11345;BME280;5727;42.600;23.028;2023-09-18T03:42:50;94181.09;;;16.05;100.00
11345;BME280;5727;42.600;23.028;2023-09-18T03:45:17;94193.63;;;16.08;100.00
11345;BME280;5727;42.600;23.028;2023-09-18T03:47:44;94186.03;;;16.07;100.00
11345;BME280;5727;42.600;23.028;2023-09-18T03:50:11;94188.75;;;16.10;100.00
11345;BME280;5727;42.600;23.028;2023-09-18T03:52:39;94176.66;;;16.09;100.00
11345;BME280;5727;42.600;23.028;2023-09-18T03:55:07;94183.34;;;16.03;100.00
11345;BME280;5727;42.600;23.028;2023-09-18T03:57:35;94174.84;;;15.94;100.00
11345;BME280;5727;42.600;23.028;2023-09-18T04:00:04;94180.03;;;15.91;100.00
11345;BME280;5727;42.600;23.028;2023-09-18T04:02:32;94180.88;;;15.95;100.00
11345;BME280;5727;42.600;23.028;2023-09-18T04:04:58;94177.75;;;15.89;100.00
11345;BME280;5727;42.600;23.028;2023-09-18T04:07:25;94182.13;;;15.82;100.00
11345;BME280;5727;42.600;23.028;2023-09-18T04:09:52;94178.38;;;15.83;100.00
11345;BME280;5727;42.600;23.028;2023-09-18T04:12:19;94179.69;;;15.73;100.00
11345;BME280;5727;42.600;23.028;2023-09-18T04:14:47;94182.34;;;15.73;100.00
11345;BME280;5727;42.600;23.028;2023-09-18T04:17:13;94183.44;;;15.72;100.00
11345;BME280;5727;42.600;23.028;2023-09-18T04:19:40;94184.13;;;15.69;100.00
11345;BME280;5727;42.600;23.028;2023-09-18T04:22:08;94183.84;;;15.74;100.00
11345;BME280;5727;42.600;23.028;2023-09-18T04:24:35;94185.78;;;15.77;100.00
11345;BME280;5727;42.600;23.028;2023-09-18T04:27:02;94185.06;;;15.77;100.00
11345;BME280;5727;42.600;23.028;2023-09-18T04:29:29;94200.19;;;15.80;100.00
11345;BME280;5727;42.600;23.028;2023-09-18T04:31:57;94193.53;;;15.86;100.00
11345;BME280;5727;42.600;23.028;2023-09-18T04:34:24;94203.34;;;15.85;100.00
11345;BME280;5727;42.600;23.028;2023-09-18T04:36:50;94204.47;;;15.84;100.00
11345;BME280;5727;42.600;23.028;2023-09-18T04:39:17;94200.28;;;15.83;100.00
11345;BME280;5727;42.600;23.028;2023-09-18T04:41:45;94201.75;;;15.81;100.00
11345;BME280;5727;42.600;23.028;2023-09-18T04:44:11;94199.72;;;15.74;100.00
11345;BME280;5727;42.600;23.028;2023-09-18T04:46:39;94205.06;;;15.78;100.00
11345;BME280;5727;42.600;23.028;2023-09-18T04:49:09;94209.63;;;15.62;100.00
11345;BME280;5727;42.600;23.028;2023-09-18T04:51:37;94210.38;;;15.62;100.00
11345;BME280;5727;42.600;23.028;2023-09-18T04:54:04;94209.44;;;15.70;100.00
11345;BME280;5727;42.600;23.028;2023-09-18T04:56:31;94198.50;;;15.72;100.00
11345;BME280;5727;42.600;23.028;2023-09-18T04:58:59;94196.78;;;15.79;100.00
11345;BME280;5727;42.600;23.028;2023-09-18T05:01:26;94198.59;;;15.75;100.00
11345;BME280;5727;42.600;23.028;2023-09-18T05:03:53;94207.28;;;15.76;100.00
11345;BME280;5727;42.600;23.028;2023-09-18T05:06:21;94206.84;;;15.74;100.00
11345;BME280;5727;42.600;23.028;2023-09-18T05:08:48;94218.34;;;15.81;100.00
11345;BME280;5727;42.600;23.028;2023-09-18T05:11:15;94209.91;;;15.76;100.00
11345;BME280;5727;42.600;23.028;2023-09-18T05:13:42;94218.47;;;15.69;100.00
11345;BME280;5727;42.600;23.028;2023-09-18T05:16:08;94213.91;;;15.85;100.00
11345;BME280;5727;42.600;23.028;2023-09-18T05:18:35;94214.06;;;15.92;100.00
11345;BME280;5727;42.600;23.028;2023-09-18T05:21:03;94219.06;;;15.97;100.00
11345;BME280;5727;42.600;23.028;2023-09-18T05:23:32;94221.19;;;16.07;100.00
11345;BME280;5727;42.600;23.028;2023-09-18T05:25:59;94220.88;;;16.12;100.00
11345;BME280;5727;42.600;23.028;2023-09-18T05:28:26;94214.28;;;16.22;100.00
11345;BME280;5727;42.600;23.028;2023-09-18T05:30:53;94219.31;;;16.27;100.00
11345;BME280;5727;42.600;23.028;2023-09-18T05:33:20;94213.38;;;16.33;100.00
11345;BME280;5727;42.600;23.028;2023-09-18T05:35:47;94217.34;;;16.43;100.00
11345;BME280;5727;42.600;23.028;2023-09-18T05:38:14;94211.47;;;16.50;100.00
11345;BME280;5727;42.600;23.028;2023-09-18T05:40:44;94212.34;;;16.57;100.00
11345;BME280;5727;42.600;23.028;2023-09-18T05:43:12;94220.00;;;16.62;100.00
11345;BME280;5727;42.600;23.028;2023-09-18T05:45:38;94216.31;;;16.67;100.00
11345;BME280;5727;42.600;23.028;2023-09-18T05:48:05;94208.50;;;16.74;100.00
11345;BME280;5727;42.600;23.028;2023-09-18T05:50:34;94213.44;;;16.75;100.00
11345;BME280;5727;42.600;23.028;2023-09-18T05:53:01;94213.22;;;16.84;100.00
11345;BME280;5727;42.600;23.028;2023-09-18T05:55:29;94216.75;;;16.91;100.00
11345;BME280;5727;42.600;23.028;2023-09-18T05:57:58;94220.63;;;16.97;100.00
11345;BME280;5727;42.600;23.028;2023-09-18T06:00:25;94216.94;;;17.02;100.00
11345;BME280;5727;42.600;23.028;2023-09-18T06:02:52;94223.03;;;17.06;100.00
11345;BME280;5727;42.600;23.028;2023-09-18T06:05:19;94218.56;;;17.10;100.00
11345;BME280;5727;42.600;23.028;2023-09-18T06:07:48;94223.22;;;17.16;100.00
11345;BME280;5727;42.600;23.028;2023-09-18T06:10:15;94227.56;;;17.28;100.00
11345;BME280;5727;42.600;23.028;2023-09-18T06:12:43;94216.69;;;17.33;100.00
11345;BME280;5727;42.600;23.028;2023-09-18T06:15:11;94225.84;;;17.39;100.00
11345;BME280;5727;42.600;23.028;2023-09-18T06:17:39;94225.44;;;17.37;100.00
11345;BME280;5727;42.600;23.028;2023-09-18T06:20:07;94226.22;;;17.37;100.00
11345;BME280;5727;42.600;23.028;2023-09-18T06:22:36;94227.50;;;17.47;100.00
11345;BME280;5727;42.600;23.028;2023-09-18T06:25:04;94225.78;;;17.58;100.00
11345;BME280;5727;42.600;23.028;2023-09-18T06:27:30;94225.34;;;17.53;100.00
11345;BME280;5727;42.600;23.028;2023-09-18T06:29:59;94227.03;;;17.64;100.00
11345;BME280;5727;42.600;23.028;2023-09-18T06:32:28;94226.09;;;17.79;100.00
11345;BME280;5727;42.600;23.028;2023-09-18T06:34:54;94226.47;;;17.78;100.00
11345;BME280;5727;42.600;23.028;2023-09-18T06:37:23;94221.75;;;17.90;100.00
11345;BME280;5727;42.600;23.028;2023-09-18T06:39:50;94220.06;;;18.08;100.00
11345;BME280;5727;42.600;23.028;2023-09-18T06:42:17;94222.09;;;18.18;100.00
11345;BME280;5727;42.600;23.028;2023-09-18T06:44:43;94226.72;;;18.25;100.00
11345;BME280;5727;42.600;23.028;2023-09-18T06:47:10;94229.88;;;18.34;100.00
11345;BME280;5727;42.600;23.028;2023-09-18T06:49:38;94226.47;;;18.37;100.00
11345;BME280;5727;42.600;23.028;2023-09-18T06:52:07;94232.41;;;18.53;100.00
11345;BME280;5727;42.600;23.028;2023-09-18T06:54:33;94228.31;;;18.59;100.00
11345;BME280;5727;42.600;23.028;2023-09-18T06:57:01;94229.38;;;18.55;100.00
11345;BME280;5727;42.600;23.028;2023-09-18T06:59:28;94230.66;;;18.68;100.00
11345;BME280;5727;42.600;23.028;2023-09-18T07:01:55;94232.66;;;18.78;100.00
11345;BME280;5727;42.600;23.028;2023-09-18T07:04:22;94226.31;;;18.86;100.00
11345;BME280;5727;42.600;23.028;2023-09-18T07:06:50;94226.38;;;18.93;100.00
11345;BME280;5727;42.600;23.028;2023-09-18T07:09:18;94226.50;;;19.07;100.00
11345;BME280;5727;42.600;23.028;2023-09-18T07:11:48;94232.22;;;19.09;100.00
11345;BME280;5727;42.600;23.028;2023-09-18T07:14:16;94233.34;;;19.08;100.00
11345;BME280;5727;42.600;23.028;2023-09-18T07:16:42;94228.22;;;19.29;100.00
11345;BME280;5727;42.600;23.028;2023-09-18T07:19:09;94235.19;;;19.44;100.00
11345;BME280;5727;42.600;23.028;2023-09-18T07:21:37;94236.03;;;19.52;100.00
11345;BME280;5727;42.600;23.028;2023-09-18T07:24:07;94243.66;;;19.57;100.00
11345;BME280;5727;42.600;23.028;2023-09-18T07:26:35;94238.41;;;19.67;100.00
11345;BME280;5727;42.600;23.028;2023-09-18T07:29:02;94237.00;;;19.80;100.00
11345;BME280;5727;42.600;23.028;2023-09-18T07:31:29;94243.53;;;19.93;100.00
11345;BME280;5727;42.600;23.028;2023-09-18T07:33:55;94239.72;;;19.91;100.00
11345;BME280;5727;42.600;23.028;2023-09-18T07:36:22;94242.00;;;19.92;100.00
11345;BME280;5727;42.600;23.028;2023-09-18T07:38:49;94243.19;;;19.98;100.00
11345;BME280;5727;42.600;23.028;2023-09-18T07:41:17;94255.00;;;20.04;100.00
11345;BME280;5727;42.600;23.028;2023-09-18T07:43:46;94250.84;;;20.11;100.00
11345;BME280;5727;42.600;23.028;2023-09-18T07:46:13;94250.56;;;20.23;100.00
11345;BME280;5727;42.600;23.028;2023-09-18T07:48:40;94248.75;;;20.37;100.00
11345;BME280;5727;42.600;23.028;2023-09-18T07:51:10;94258.69;;;20.47;100.00
11345;BME280;5727;42.600;23.028;2023-09-18T07:53:37;94254.47;;;20.43;100.00
11345;BME280;5727;42.600;23.028;2023-09-18T07:56:04;94252.59;;;20.54;100.00
11345;BME280;5727;42.600;23.028;2023-09-18T07:58:32;94252.69;;;20.75;100.00
11345;BME280;5727;42.600;23.028;2023-09-18T08:00:59;94256.50;;;20.74;100.00
11345;BME280;5727;42.600;23.028;2023-09-18T08:03:26;94256.81;;;20.55;100.00
11345;BME280;5727;42.600;23.028;2023-09-18T08:05:54;94248.06;;;20.58;100.00
11345;BME280;5727;42.600;23.028;2023-09-18T08:08:21;94256.88;;;20.76;100.00
11345;BME280;5727;42.600;23.028;2023-09-18T08:10:49;94255.72;;;20.77;100.00
11345;BME280;5727;42.600;23.028;2023-09-18T08:13:15;94242.03;;;20.75;100.00
11345;BME280;5727;42.600;23.028;2023-09-18T08:15:44;94238.56;;;20.57;100.00
11345;BME280;5727;42.600;23.028;2023-09-18T08:18:11;94243.00;;;20.25;100.00
11345;BME280;5727;42.600;23.028;2023-09-18T08:20:40;94233.84;;;20.22;100.00
11345;BME280;5727;42.600;23.028;2023-09-18T08:23:08;94240.13;;;20.00;100.00
11345;BME280;5727;42.600;23.028;2023-09-18T08:25:35;94227.44;;;19.72;100.00
11345;BME280;5727;42.600;23.028;2023-09-18T08:28:02;94224.16;;;19.42;100.00
11345;BME280;5727;42.600;23.028;2023-09-18T08:30:30;94230.66;;;19.48;100.00
11345;BME280;5727;42.600;23.028;2023-09-18T08:32:58;94220.53;;;19.61;100.00
11345;BME280;5727;42.600;23.028;2023-09-18T08:35:25;94220.25;;;19.76;100.00
11345;BME280;5727;42.600;23.028;2023-09-18T08:37:54;94220.72;;;19.92;100.00
11345;BME280;5727;42.600;23.028;2023-09-18T08:40:22;94217.34;;;19.99;100.00
11345;BME280;5727;42.600;23.028;2023-09-18T08:42:52;94215.94;;;20.19;100.00
11345;BME280;5727;42.600;23.028;2023-09-18T08:45:26;94206.13;;;20.27;100.00
11345;BME280;5727;42.600;23.028;2023-09-18T08:47:54;94210.00;;;20.43;100.00
11345;BME280;5727;42.600;23.028;2023-09-18T08:50:23;94212.28;;;20.52;100.00
11345;BME280;5727;42.600;23.028;2023-09-18T08:52:51;94211.19;;;20.60;100.00
11345;BME280;5727;42.600;23.028;2023-09-18T08:55:18;94215.78;;;20.70;100.00
11345;BME280;5727;42.600;23.028;2023-09-18T08:57:46;94210.09;;;20.82;100.00
11345;BME280;5727;42.600;23.028;2023-09-18T09:00:14;94210.84;;;20.79;100.00
11345;BME280;5727;42.600;23.028;2023-09-18T09:02:43;94197.56;;;20.86;100.00
11345;BME280;5727;42.600;23.028;2023-09-18T09:05:10;94197.94;;;20.88;100.00
11345;BME280;5727;42.600;23.028;2023-09-18T09:07:38;94197.94;;;20.95;100.00
11345;BME280;5727;42.600;23.028;2023-09-18T09:10:05;94194.56;;;21.09;100.00
11345;BME280;5727;42.600;23.028;2023-09-18T09:12:49;94189.25;;;21.09;100.00
11345;BME280;5727;42.600;23.028;2023-09-18T09:15:16;94184.31;;;21.14;100.00
11345;BME280;5727;42.600;23.028;2023-09-18T09:17:43;94182.78;;;21.31;100.00
11345;BME280;5727;42.600;23.028;2023-09-18T09:20:11;94183.16;;;21.43;100.00
11345;BME280;5727;42.600;23.028;2023-09-18T09:22:41;94186.97;;;21.46;100.00
11345;BME280;5727;42.600;23.028;2023-09-18T09:25:23;94186.22;;;21.49;100.00
11345;BME280;5727;42.600;23.028;2023-09-18T09:27:51;94176.69;;;21.51;100.00
11345;BME280;5727;42.600;23.028;2023-09-18T09:30:19;94173.63;;;21.46;100.00
11345;BME280;5727;42.600;23.028;2023-09-18T09:32:48;94177.06;;;21.22;100.00
11345;BME280;5727;42.600;23.028;2023-09-18T09:35:23;94174.41;;;21.11;100.00
11345;BME280;5727;42.600;23.028;2023-09-18T09:37:55;94168.69;;;21.06;100.00
11345;BME280;5727;42.600;23.028;2023-09-18T09:40:25;94171.34;;;21.27;100.00
11345;BME280;5727;42.600;23.028;2023-09-18T09:42:52;94170.22;;;21.24;100.00
11345;BME280;5727;42.600;23.028;2023-09-18T09:45:26;94162.22;;;21.45;100.00
11345;BME280;5727;42.600;23.028;2023-09-18T09:47:53;94158.75;;;21.66;100.00
11345;BME280;5727;42.600;23.028;2023-09-18T09:50:20;94154.16;;;21.80;100.00
11345;BME280;5727;42.600;23.028;2023-09-18T09:52:48;94149.97;;;21.90;100.00
11345;BME280;5727;42.600;23.028;2023-09-18T09:55:22;94135.44;;;22.02;100.00
11345;BME280;5727;42.600;23.028;2023-09-18T09:57:51;94135.44;;;22.02;100.00
11345;BME280;5727;42.600;23.028;2023-09-18T10:00:19;94148.44;;;21.89;100.00
11345;BME280;5727;42.600;23.028;2023-09-18T10:02:57;94143.09;;;21.93;100.00
11345;BME280;5727;42.600;23.028;2023-09-18T10:05:27;94139.22;;;22.18;100.00
11345;BME280;5727;42.600;23.028;2023-09-18T10:07:57;94134.13;;;22.45;100.00
11345;BME280;5727;42.600;23.028;2023-09-18T10:10:29;94128.78;;;22.45;100.00
11345;BME280;5727;42.600;23.028;2023-09-18T10:12:57;94131.03;;;22.50;100.00
11345;BME280;5727;42.600;23.028;2023-09-18T10:15:28;94131.44;;;22.45;100.00
11345;BME280;5727;42.600;23.028;2023-09-18T10:17:56;94121.41;;;22.70;100.00
11345;BME280;5727;42.600;23.028;2023-09-18T10:20:26;94121.34;;;22.84;100.00
11345;BME280;5727;42.600;23.028;2023-09-18T10:22:56;94116.00;;;22.84;100.00
11345;BME280;5727;42.600;23.028;2023-09-18T10:25:29;94110.50;;;23.02;100.00
11345;BME280;5727;42.600;23.028;2023-09-18T10:27:57;94101.94;;;23.24;100.00
11345;BME280;5727;42.600;23.028;2023-09-18T10:30:29;94101.03;;;23.41;100.00
11345;BME280;5727;42.600;23.028;2023-09-18T10:32:56;94104.28;;;23.59;100.00
11345;BME280;5727;42.600;23.028;2023-09-18T10:35:23;94099.25;;;23.65;100.00
11345;BME280;5727;42.600;23.028;2023-09-18T10:37:50;94107.53;;;23.78;100.00
11345;BME280;5727;42.600;23.028;2023-09-18T10:40:20;94098.59;;;23.91;100.00
11345;BME280;5727;42.600;23.028;2023-09-18T10:42:50;94092.00;;;23.99;100.00
11345;BME280;5727;42.600;23.028;2023-09-18T10:45:18;94086.44;;;24.20;100.00
11345;BME280;5727;42.600;23.028;2023-09-18T10:47:46;94090.75;;;24.11;100.00
11345;BME280;5727;42.600;23.028;2023-09-18T10:50:22;94079.84;;;24.25;100.00
11345;BME280;5727;42.600;23.028;2023-09-18T10:52:50;94083.84;;;24.40;100.00
11345;BME280;5727;42.600;23.028;2023-09-18T10:55:17;94072.03;;;24.64;100.00
11345;BME280;5727;42.600;23.028;2023-09-18T10:57:56;94061.69;;;24.93;98.60
11345;BME280;5727;42.600;23.028;2023-09-18T11:00:25;94060.22;;;25.11;97.46
11345;BME280;5727;42.600;23.028;2023-09-18T11:02:53;94053.50;;;25.23;96.97
11345;BME280;5727;42.600;23.028;2023-09-18T11:05:32;94046.38;;;25.40;95.92
11345;BME280;5727;42.600;23.028;2023-09-18T11:08:24;94050.03;;;25.49;96.01
11345;BME280;5727;42.600;23.028;2023-09-18T11:10:56;94043.06;;;25.52;92.92
11345;BME280;5727;42.600;23.028;2023-09-18T11:13:34;94035.25;;;25.61;96.75
11345;BME280;5727;42.600;23.028;2023-09-18T11:16:13;94034.06;;;25.62;92.03
11345;BME280;5727;42.600;23.028;2023-09-18T11:18:40;94035.84;;;25.25;87.00
11345;BME280;5727;42.600;23.028;2023-09-18T11:21:07;94030.31;;;25.13;89.16
11345;BME280;5727;42.600;23.028;2023-09-18T11:23:36;94029.78;;;25.21;87.46
11345;BME280;5727;42.600;23.028;2023-09-18T11:26:07;94031.91;;;25.10;85.60
11345;BME280;5727;42.600;23.028;2023-09-18T11:28:36;94035.63;;;25.16;85.60
11345;BME280;5727;42.600;23.028;2023-09-18T11:31:04;94028.41;;;25.13;85.63
11345;BME280;5727;42.600;23.028;2023-09-18T11:33:35;94021.69;;;25.25;85.72
11345;BME280;5727;42.600;23.028;2023-09-18T11:36:04;94029.78;;;25.45;84.05
11345;BME280;5727;42.600;23.028;2023-09-18T11:38:55;94016.94;;;25.75;83.04
11345;BME280;5727;42.600;23.028;2023-09-18T11:41:23;94021.03;;;25.99;79.14
11345;BME280;5727;42.600;23.028;2023-09-18T11:44:31;94013.22;;;26.08;76.29
11345;BME280;5727;42.600;23.028;2023-09-18T11:46:58;94009.13;;;26.20;74.89
11345;BME280;5727;42.600;23.028;2023-09-18T11:49:26;94011.00;;;26.55;73.26
11345;BME280;5727;42.600;23.028;2023-09-18T11:51:54;94015.44;;;26.81;72.07
11345;BME280;5727;42.600;23.028;2023-09-18T11:54:21;94006.41;;;26.56;63.90
11345;BME280;5727;42.600;23.028;2023-09-18T11:56:48;94006.16;;;26.50;65.20
11345;BME280;5727;42.600;23.028;2023-09-18T11:59:16;94008.84;;;26.50;69.57
11345;BME280;5727;42.600;23.028;2023-09-18T12:01:52;93997.81;;;27.25;67.07
11345;BME280;5727;42.600;23.028;2023-09-18T12:04:27;94009.56;;;28.55;56.70
11345;BME280;5727;42.600;23.028;2023-09-18T12:06:54;93996.72;;;30.79;45.04
11345;BME280;5727;42.600;23.028;2023-09-18T12:09:21;93996.31;;;32.25;38.94
11345;BME280;5727;42.600;23.028;2023-09-18T12:11:50;93993.09;;;34.25;35.40
11345;BME280;5727;42.600;23.028;2023-09-18T12:14:20;93990.75;;;35.36;32.27
11345;BME280;5727;42.600;23.028;2023-09-18T12:16:47;93986.31;;;34.20;31.38
11345;BME280;5727;42.600;23.028;2023-09-18T12:19:16;93989.47;;;34.62;31.82
11345;BME280;5727;42.600;23.028;2023-09-18T12:21:46;93978.31;;;35.75;29.86
11345;BME280;5727;42.600;23.028;2023-09-18T12:24:14;93975.69;;;35.61;29.99
11345;BME280;5727;42.600;23.028;2023-09-18T12:26:41;93964.72;;;34.60;30.48
11345;BME280;5727;42.600;23.028;2023-09-18T12:29:08;93977.44;;;33.28;32.30
11345;BME280;5727;42.600;23.028;2023-09-18T12:31:38;93977.25;;;33.32;32.11
11345;BME280;5727;42.600;23.028;2023-09-18T12:34:14;93974.72;;;33.52;31.72
11345;BME280;5727;42.600;23.028;2023-09-18T12:36:41;93972.38;;;34.76;30.04
11345;BME280;5727;42.600;23.028;2023-09-18T12:39:08;93963.44;;;34.56;29.51
11345;BME280;5727;42.600;23.028;2023-09-18T12:41:36;93962.81;;;35.41;29.11
11345;BME280;5727;42.600;23.028;2023-09-18T12:44:05;93968.94;;;36.59;27.58
11345;BME280;5727;42.600;23.028;2023-09-18T12:46:34;93963.50;;;35.16;28.84
11345;BME280;5727;42.600;23.028;2023-09-18T12:49:16;93958.47;;;35.09;27.67
11345;BME280;5727;42.600;23.028;2023-09-18T12:51:43;93945.25;;;35.88;27.71
11345;BME280;5727;42.600;23.028;2023-09-18T12:54:11;93942.06;;;35.44;28.11
11345;BME280;5727;42.600;23.028;2023-09-18T12:56:41;93951.28;;;35.72;28.42
11345;BME280;5727;42.600;23.028;2023-09-18T12:59:09;93948.41;;;36.69;27.12